Time;durP1;ratioP1;P1;durP2;ratioP2;P2;SDS_P1;SDS_P2;PMS_P1;PMS_P2;Temp;Humidity;BMP_temperature;BMP_pressure;BME280_temperature;BME280_humidity;BME280_pressure;Samples;Min_cycle;Max_cycle;Signal;HPM_P1;HPM_P2
2024/02/27 00:00:32;;;;;;;9.70;6.75;;;;;9.30;97700.00;;;;4861808;29;20053;-69
2024/02/27 00:02:59;;;;;;;11.80;6.88;;;;;9.30;97698.00;;;;4845011;29;20049;-69
2024/02/27 00:05:26;;;;;;;9.95;7.63;;;;;9.30;97716.00;;;;4860187;29;20057;-69
2024/02/27 00:07:52;;;;;;;10.77;7.03;;;;;9.30;97705.00;;;;4844837;29;20041;-68
2024/02/27 00:10:19;;;;;;;11.45;7.18;;;;;9.20;97707.00;;;;4860077;29;20078;-69
2024/02/27 00:12:46;;;;;;;11.07;7.32;;;;;9.20;97711.00;;;;4859837;29;20499;-68
2024/02/27 00:15:12;;;;;;;10.55;7.70;;;;;9.20;97701.00;;;;4845752;29;20148;-68
2024/02/27 00:17:39;;;;;;;10.35;7.75;;;;;9.30;97713.00;;;;4860095;29;20056;-68
2024/02/27 00:20:07;;;;;;;10.98;8.45;;;;;9.20;97709.00;;;;4861317;29;20061;-68
2024/02/27 00:22:34;;;;;;;11.35;8.23;;;;;9.20;97708.00;;;;4844999;29;20074;-68
2024/02/27 00:25:01;;;;;;;10.40;7.10;;;;;9.20;97712.00;;;;4860160;29;20415;-68
2024/02/27 00:27:27;;;;;;;10.23;6.72;;;;;9.20;97710.00;;;;4845409;29;20049;-69
2024/02/27 00:29:54;;;;;;;8.77;6.93;;;;;9.20;97709.00;;;;4860339;29;20053;-69
2024/02/27 00:32:21;;;;;;;11.73;7.50;;;;;9.20;97714.00;;;;4860150;29;20064;-70
2024/02/27 00:34:48;;;;;;;10.68;7.13;;;;;9.20;97712.00;;;;4860145;29;20412;-69
2024/02/27 00:37:15;;;;;;;8.38;6.47;;;;;9.20;97709.00;;;;4860015;29;20069;-69
2024/02/27 00:39:42;;;;;;;10.57;7.60;;;;;9.20;97707.00;;;;4859806;29;20081;-69
2024/02/27 00:42:08;;;;;;;7.80;6.05;;;;;9.30;97723.00;;;;4861409;29;20053;-69
2024/02/27 00:44:35;;;;;;;10.45;7.20;;;;;9.30;97735.00;;;;4863875;29;20053;-69
2024/02/27 00:47:01;;;;;;;9.80;6.68;;;;;9.30;97726.00;;;;4865097;29;20054;-69
2024/02/27 00:49:29;;;;;;;9.88;7.75;;;;;9.30;97742.00;;;;4866195;29;20538;-69
2024/02/27 00:51:56;;;;;;;12.82;7.60;;;;;9.20;97737.00;;;;4848947;29;20454;-69
2024/02/27 00:54:23;;;;;;;12.10;7.82;;;;;9.10;97751.00;;;;4865042;29;20136;-69
2024/02/27 00:56:49;;;;;;;9.48;7.20;;;;;9.10;97749.00;;;;4864792;29;20049;-69
2024/02/27 00:59:16;;;;;;;8.48;6.22;;;;;9.10;97751.00;;;;4864603;29;20582;-69
2024/02/27 01:01:43;;;;;;;12.05;8.10;;;;;9.10;97754.00;;;;4863299;29;20053;-69
2024/02/27 01:04:10;;;;;;;12.02;8.10;;;;;9.10;97759.00;;;;4864370;29;20132;-69
2024/02/27 01:06:36;;;;;;;11.13;7.78;;;;;9.10;97768.00;;;;4863511;29;20068;-69
2024/02/27 01:09:03;;;;;;;10.57;7.55;;;;;9.10;97771.00;;;;4863068;29;20467;-69
2024/02/27 01:11:30;;;;;;;11.48;7.18;;;;;9.10;97772.00;;;;4863209;29;20061;-69
2024/02/27 01:13:56;;;;;;;9.40;6.95;;;;;9.20;97774.00;;;;4863215;29;20109;-69
2024/02/27 01:16:23;;;;;;;9.50;7.22;;;;;9.20;97768.00;;;;4847795;29;20045;-69
2024/02/27 01:18:50;;;;;;;10.85;7.88;;;;;9.20;97773.00;;;;4847651;29;20567;-69
2024/02/27 01:21:17;;;;;;;12.65;8.48;;;;;9.10;97775.00;;;;4863310;29;20056;-69
2024/02/27 01:23:44;;;;;;;12.18;8.23;;;;;9.20;97773.00;;;;4847940;29;20109;-69
2024/02/27 01:26:11;;;;;;;12.50;7.80;;;;;9.10;97771.00;;;;4863952;29;20076;-69
2024/02/27 01:28:38;;;;;;;11.38;7.93;;;;;9.10;97787.00;;;;4847630;29;20071;-69
2024/02/27 01:31:05;;;;;;;12.73;8.15;;;;;9.00;97768.00;;;;4863114;29;20547;-69
2024/02/27 01:33:32;;;;;;;9.13;6.60;;;;;9.00;97766.00;;;;4863365;29;20049;-69
2024/02/27 01:35:59;;;;;;;7.28;6.20;;;;;8.90;97769.00;;;;4863434;29;20495;-69
2024/02/27 01:38:26;;;;;;;8.27;5.70;;;;;8.90;97753.00;;;;4862563;29;20049;-69
2024/02/27 01:40:52;;;;;;;8.27;5.10;;;;;8.80;97768.00;;;;4847964;29;20053;-69
2024/02/27 01:43:23;;;;;;;8.27;5.13;;;;;8.80;97777.00;;;;4862869;29;20093;-69
2024/02/27 01:46:00;;;;;;;7.97;5.07;;;;;8.80;97776.00;;;;4862453;29;20455;-69
2024/02/27 01:48:27;;;;;;;5.10;4.60;;;;;8.80;97782.00;;;;4864144;29;20128;-69
2024/02/27 01:50:54;;;;;;;10.32;5.43;;;;;8.90;97779.00;;;;4862365;29;20057;-69
2024/02/27 01:53:22;;;;;;;8.18;5.20;;;;;8.80;97768.00;;;;4862362;29;20125;-69
2024/02/27 01:55:49;;;;;;;6.68;4.65;;;;;8.80;97778.00;;;;4862667;29;20384;-69
2024/02/27 01:58:16;;;;;;;6.68;4.28;;;;;8.70;97768.00;;;;4847399;29;20041;-69
2024/02/27 02:00:43;;;;;;;6.03;4.53;;;;;8.60;97778.00;;;;4863102;29;20053;-69
2024/02/27 02:03:13;;;;;;;7.03;4.55;;;;;8.60;97767.00;;;;4862602;29;20061;-69
2024/02/27 02:05:40;;;;;;;7.18;4.90;;;;;8.60;97784.00;;;;4846858;29;20045;-71
2024/02/27 02:08:07;;;;;;;7.13;5.22;;;;;8.60;97771.00;;;;4846753;29;20567;-70
2024/02/27 02:10:34;;;;;;;6.75;4.47;;;;;8.60;97783.00;;;;4862172;29;20081;-70
2024/02/27 02:13:02;;;;;;;9.00;5.28;;;;;8.50;97785.00;;;;4862064;29;20077;-70
2024/02/27 02:15:28;;;;;;;6.95;4.68;;;;;8.40;97788.00;;;;4862859;29;20054;-70
2024/02/27 02:17:55;;;;;;;8.27;5.25;;;;;8.40;97788.00;;;;4847515;29;20061;-70
2024/02/27 02:20:22;;;;;;;11.45;4.82;;;;;8.20;97791.00;;;;4861920;29;20392;-70
2024/02/27 02:22:48;;;;;;;7.05;5.25;;;;;8.10;97794.00;;;;4859043;29;20431;-70
2024/02/27 02:25:19;;;;;;;11.07;6.55;;;;;8.20;97797.00;;;;4843350;29;20054;-70
2024/02/27 02:27:48;;;;;;;10.13;6.60;;;;;8.10;97804.00;;;;4843966;29;20106;-70
2024/02/27 02:30:15;;;;;;;8.27;5.65;;;;;8.10;97801.00;;;;4843282;29;20540;-70
2024/02/27 02:32:46;;;;;;;10.35;6.15;;;;;8.10;97800.00;;;;4828309;29;20476;-70
2024/02/27 02:35:13;;;;;;;9.88;7.00;;;;;8.10;97803.00;;;;4843184;29;20053;-70
2024/02/27 02:37:47;;;;;;;12.27;7.03;;;;;8.10;97801.00;;;;4843265;29;20042;-70
2024/02/27 02:40:17;;;;;;;11.43;6.63;;;;;8.10;97806.00;;;;4843656;29;20053;-70
2024/02/27 02:42:44;;;;;;;9.77;6.53;;;;;8.10;97814.00;;;;4844382;29;20145;-70
2024/02/27 02:45:12;;;;;;;9.10;6.85;;;;;8.10;97822.00;;;;4844451;29;20056;-70
2024/02/27 02:47:39;;;;;;;10.35;7.15;;;;;8.20;97821.00;;;;4843082;29;20061;-70
2024/02/27 02:50:07;;;;;;;9.20;7.13;;;;;8.20;97821.00;;;;4843541;29;20337;-70
2024/02/27 02:52:34;;;;;;;9.32;6.43;;;;;8.10;97820.00;;;;4851241;29;20056;-70
2024/02/27 02:55:02;;;;;;;8.45;6.38;;;;;8.10;97819.00;;;;4842986;29;20526;-70
2024/02/27 02:57:29;;;;;;;9.77;7.25;;;;;8.10;97822.00;;;;4843197;29;20491;-69
2024/02/27 02:59:56;;;;;;;13.40;7.20;;;;;8.20;97825.00;;;;4842957;29;20046;-69
2024/02/27 03:02:23;;;;;;;8.57;6.43;;;;;8.20;97832.00;;;;4843036;29;20046;-69
2024/02/27 03:04:49;;;;;;;10.10;6.65;;;;;8.20;97833.00;;;;4842215;29;20106;-69
2024/02/27 03:07:16;;;;;;;9.43;6.18;;;;;8.20;97837.00;;;;4842986;29;20053;-69
2024/02/27 03:09:43;;;;;;;9.40;6.20;;;;;8.10;97837.00;;;;4846686;29;20094;-69
2024/02/27 03:12:10;;;;;;;9.15;5.80;;;;;8.10;97843.00;;;;4861037;29;20042;-69
2024/02/27 03:14:42;;;;;;;9.52;6.35;;;;;8.00;97847.00;;;;4843727;29;20046;-70
2024/02/27 03:17:09;;;;;;;9.52;5.97;;;;;7.90;97840.00;;;;4843792;29;20110;-71
2024/02/27 03:19:36;;;;;;;10.27;6.70;;;;;7.90;97836.00;;;;4842632;29;20078;-70
2024/02/27 03:22:03;;;;;;;10.48;7.32;;;;;7.90;97831.00;;;;4849375;29;20046;-70
2024/02/27 03:24:31;;;;;;;9.88;7.40;;;;;7.80;97823.00;;;;4861097;29;20144;-70
2024/02/27 03:26:59;;;;;;;9.60;7.32;;;;;7.90;97831.00;;;;4860719;29;20064;-70
2024/02/27 03:29:26;;;;;;;11.15;7.53;;;;;7.90;97834.00;;;;4862152;29;20057;-69
2024/02/27 03:31:53;;;;;;;11.65;7.95;;;;;7.90;97833.00;;;;4845701;29;20089;-69
2024/02/27 03:34:19;;;;;;;12.00;7.65;;;;;7.90;97840.00;;;;4845439;29;20468;-69
2024/02/27 03:36:46;;;;;;;13.98;8.38;;;;;7.80;97844.00;;;;4860457;29;20144;-69
2024/02/27 03:39:13;;;;;;;12.00;7.43;;;;;7.80;97842.00;;;;4860421;29;20050;-69
2024/02/27 03:41:40;;;;;;;12.57;7.72;;;;;7.70;97842.00;;;;4860751;29;20132;-69
2024/02/27 03:44:07;;;;;;;9.82;7.40;;;;;7.70;97841.00;;;;4860391;29;20519;-69
2024/02/27 03:46:33;;;;;;;14.13;8.77;;;;;7.70;97844.00;;;;4860429;29;20482;-69
2024/02/27 03:49:00;;;;;;;15.48;8.18;;;;;7.70;97844.00;;;;4860668;29;20041;-69
2024/02/27 03:51:26;;;;;;;15.20;8.70;;;;;7.80;97852.00;;;;4857752;29;20204;-69
2024/02/27 03:53:53;;;;;;;12.70;9.07;;;;;7.80;97855.00;;;;4842266;29;20050;-69
2024/02/27 03:56:20;;;;;;;11.90;8.43;;;;;7.90;97860.00;;;;4827051;29;20088;-69
2024/02/27 03:58:46;;;;;;;10.90;7.93;;;;;7.80;97871.00;;;;4841845;29;20053;-69
2024/02/27 04:01:16;;;;;;;11.40;7.53;;;;;7.80;97873.00;;;;4857132;29;20054;-69
2024/02/27 04:03:44;;;;;;;13.98;8.10;;;;;7.80;97878.00;;;;4857516;29;20106;-69
2024/02/27 04:06:13;;;;;;;10.98;7.88;;;;;7.80;97876.00;;;;4842914;29;20057;-69
2024/02/27 04:08:40;;;;;;;12.77;8.30;;;;;7.80;97875.00;;;;4842783;29;20058;-69
2024/02/27 04:11:07;;;;;;;14.20;8.20;;;;;7.80;97889.00;;;;4841683;29;20058;-69
2024/02/27 04:13:33;;;;;;;12.65;8.32;;;;;7.80;97885.00;;;;4842954;29;20052;-69
2024/02/27 04:16:02;;;;;;;12.07;8.93;;;;;7.70;97880.00;;;;4825903;29;20054;-69
2024/02/27 04:18:29;;;;;;;13.75;8.75;;;;;7.70;97882.00;;;;4841672;29;20050;-69
2024/02/27 04:20:55;;;;;;;11.63;8.20;;;;;7.70;97886.00;;;;4841394;29;20056;-69
2024/02/27 04:23:22;;;;;;;12.70;8.80;;;;;7.70;97886.00;;;;4855446;29;20065;-69
2024/02/27 04:25:49;;;;;;;11.88;8.45;;;;;7.70;97882.00;;;;4856799;29;20054;-70
2024/02/27 04:28:16;;;;;;;11.85;8.38;;;;;7.60;97889.00;;;;4841402;29;20415;-69
2024/02/27 04:30:42;;;;;;;12.65;9.23;;;;;7.60;97901.00;;;;4843100;29;20046;-70
2024/02/27 04:33:09;;;;;;;11.90;8.70;;;;;7.50;97902.00;;;;4841524;29;20090;-69
2024/02/27 04:35:36;;;;;;;15.05;9.18;;;;;7.40;97903.00;;;;4857027;29;20146;-69
2024/02/27 04:38:02;;;;;;;13.95;8.00;;;;;7.40;97909.00;;;;4843058;29;20148;-69
2024/02/27 04:40:29;;;;;;;19.08;8.25;;;;;7.40;97910.00;;;;4843015;29;20060;-70
2024/02/27 04:42:55;;;;;;;13.10;7.82;;;;;7.30;97911.00;;;;4842313;29;20046;-69
2024/02/27 04:45:22;;;;;;;9.98;7.53;;;;;7.30;97906.00;;;;4856837;29;20086;-69
2024/02/27 04:47:49;;;;;;;12.07;8.30;;;;;7.30;97911.00;;;;4842688;29;20064;-70
2024/02/27 04:50:15;;;;;;;13.20;8.48;;;;;7.40;97923.00;;;;4826162;29;20054;-69
2024/02/27 04:52:42;;;;;;;13.40;8.52;;;;;7.40;97927.00;;;;4842538;29;20132;-69
2024/02/27 04:55:08;;;;;;;12.52;8.73;;;;;7.40;97932.00;;;;4841195;29;20534;-69
2024/02/27 04:57:35;;;;;;;10.18;7.80;;;;;7.40;97935.00;;;;4841147;29;20053;-69
2024/02/27 05:00:04;;;;;;;11.48;8.30;;;;;7.50;97950.00;;;;4856442;29;20049;-69
2024/02/27 05:02:31;;;;;;;13.02;9.18;;;;;7.50;97945.00;;;;4841293;29;20060;-69
2024/02/27 05:04:57;;;;;;;16.55;11.30;;;;;7.50;97947.00;;;;4856468;29;20056;-69
2024/02/27 05:07:24;;;;;;;18.20;10.77;;;;;7.40;97947.00;;;;4856693;29;20133;-69
2024/02/27 05:09:51;;;;;;;20.30;11.70;;;;;7.40;97951.00;;;;4841603;29;20069;-69
2024/02/27 05:12:17;;;;;;;23.70;12.27;;;;;7.30;97959.00;;;;4842195;29;20046;-70
2024/02/27 05:14:46;;;;;;;20.63;12.65;;;;;7.20;97962.00;;;;4841255;29;20149;-69
2024/02/27 05:17:12;;;;;;;17.83;11.70;;;;;7.30;97970.00;;;;4840922;29;20053;-69
2024/02/27 05:19:39;;;;;;;17.33;11.90;;;;;7.20;97971.00;;;;4841660;29;20062;-69
2024/02/27 05:22:06;;;;;;;16.42;11.65;;;;;7.00;97973.00;;;;4859483;29;20057;-69
2024/02/27 05:24:32;;;;;;;17.77;12.00;;;;;6.90;97969.00;;;;4859429;29;20088;-69
2024/02/27 05:26:59;;;;;;;18.45;12.20;;;;;6.90;97963.00;;;;4844529;29;20049;-69
2024/02/27 05:29:26;;;;;;;18.80;12.00;;;;;6.90;97970.00;;;;4863064;29;20120;-68
2024/02/27 05:31:52;;;;;;;22.33;12.60;;;;;6.90;97977.00;;;;4863817;29;20487;-69
2024/02/27 05:34:19;;;;;;;22.98;13.40;;;;;7.00;97973.00;;;;4865815;29;20059;-69
2024/02/27 05:36:46;;;;;;;20.45;13.43;;;;;7.00;97988.00;;;;4866661;29;20133;-69
2024/02/27 05:39:14;;;;;;;20.25;11.77;;;;;7.00;97978.00;;;;4864187;29;20101;-69
2024/02/27 05:41:41;;;;;;;18.10;11.27;;;;;7.00;97977.00;;;;4863340;29;20055;-69
2024/02/27 05:44:07;;;;;;;18.98;12.68;;;;;7.10;97981.00;;;;4862666;29;20053;-69
2024/02/27 05:46:34;;;;;;;27.40;17.40;;;;;7.10;97986.00;;;;4862598;29;20056;-69
2024/02/27 05:49:01;;;;;;;34.53;19.10;;;;;7.10;97991.00;;;;4847203;29;20419;-69
2024/02/27 05:51:27;;;;;;;24.30;15.73;;;;;7.00;97992.00;;;;4862430;29;20052;-69
2024/02/27 05:53:54;;;;;;;24.85;15.50;;;;;7.00;97987.00;;;;4862430;29;20049;-69
2024/02/27 05:56:21;;;;;;;28.23;16.27;;;;;7.00;97990.00;;;;4863647;29;20056;-69
2024/02/27 05:58:48;;;;;;;29.73;18.73;;;;;7.00;97998.00;;;;4863876;29;20053;-69
2024/02/27 06:01:15;;;;;;;32.10;18.85;;;;;7.10;97995.00;;;;4863969;29;20059;-70
2024/02/27 06:03:42;;;;;;;30.73;17.13;;;;;7.10;98008.00;;;;4847144;29;20053;-70
2024/02/27 06:06:12;;;;;;;23.92;16.08;;;;;7.10;98017.00;;;;4862488;29;20056;-70
2024/02/27 06:08:39;;;;;;;27.00;17.85;;;;;7.20;98015.00;;;;4863570;29;20121;-70
2024/02/27 06:11:05;;;;;;;25.88;16.80;;;;;7.20;98009.00;;;;4846860;29;20140;-70
2024/02/27 06:13:32;;;;;;;22.83;16.08;;;;;7.10;98010.00;;;;4846936;29;20051;-70
2024/02/27 06:15:59;;;;;;;25.70;16.98;;;;;7.10;98008.00;;;;4846839;29;20060;-70
2024/02/27 06:18:25;;;;;;;21.88;15.32;;;;;7.10;98000.00;;;;4862055;29;20077;-70
2024/02/27 06:23:37;;;;;;;23.42;15.23;;;;;6.80;97997.00;;;;4863219;29;20517;-70
2024/02/27 06:26:08;;;;;;;23.77;16.15;;;;;6.80;97997.00;;;;4862369;29;20045;-71
2024/02/27 06:28:34;;;;;;;25.08;16.05;;;;;6.80;97995.00;;;;4863050;29;20046;-70
2024/02/27 06:31:01;;;;;;;24.63;16.27;;;;;6.90;98003.00;;;;4846379;29;20049;-70
2024/02/27 06:33:27;;;;;;;26.80;17.08;;;;;7.00;98011.00;;;;4861614;29;20049;-69
2024/02/27 06:35:54;;;;;;;29.42;18.92;;;;;7.00;98013.00;;;;4861835;29;20468;-69
2024/02/27 06:38:21;;;;;;;29.35;19.20;;;;;7.00;98008.00;;;;4862514;29;20084;-70
2024/02/27 06:40:47;;;;;;;31.25;20.60;;;;;6.90;98011.00;;;;4862532;29;20120;-70
2024/02/27 06:43:14;;;;;;;33.53;22.33;;;;;6.90;98018.00;;;;4846286;29;20050;-69
2024/02/27 06:45:40;;;;;;;32.78;21.60;;;;;6.90;98025.00;;;;4861449;29;20102;-70
2024/02/27 06:48:09;;;;;;;35.88;21.88;;;;;6.80;98036.00;;;;4846134;29;20061;-70
2024/02/27 06:50:36;;;;;;;37.13;23.40;;;;;6.90;98037.00;;;;4862125;29;20050;-70
2024/02/27 06:53:03;;;;;;;38.65;22.60;;;;;6.90;98038.00;;;;4858380;29;20081;-70
2024/02/27 06:55:30;;;;;;;35.60;21.35;;;;;7.00;98050.00;;;;4844677;29;20077;-70
2024/02/27 06:57:56;;;;;;;35.55;22.27;;;;;6.90;98052.00;;;;4843219;29;20072;-70
2024/02/27 07:00:23;;;;;;;32.92;21.85;;;;;7.00;98057.00;;;;4842748;29;20046;-70
2024/02/27 07:02:50;;;;;;;33.90;21.85;;;;;7.20;98063.00;;;;4842727;29;20468;-69
2024/02/27 07:05:17;;;;;;;34.90;23.05;;;;;7.20;98071.00;;;;4843968;29;20141;-69
2024/02/27 07:07:44;;;;;;;35.58;22.35;;;;;7.20;98073.00;;;;4842732;29;20046;-70
2024/02/27 07:10:13;;;;;;;31.27;21.80;;;;;7.20;98082.00;;;;4842514;29;20411;-70
2024/02/27 07:12:41;;;;;;;41.85;24.13;;;;;7.20;98080.00;;;;4842602;29;20050;-70
2024/02/27 07:15:09;;;;;;;33.67;22.90;;;;;7.20;98080.00;;;;4843827;29;20050;-69
2024/02/27 07:17:35;;;;;;;36.90;22.25;;;;;7.20;98083.00;;;;4843819;29;20061;-70
2024/02/27 07:20:03;;;;;;;36.53;22.50;;;;;7.30;98085.00;;;;4844120;29;20059;-69
2024/02/27 07:22:33;;;;;;;34.70;23.17;;;;;7.30;98087.00;;;;4854325;29;20499;-69
2024/02/27 07:24:59;;;;;;;31.75;22.00;;;;;7.30;98085.00;;;;4862053;29;20140;-69
2024/02/27 07:27:26;;;;;;;34.72;23.02;;;;;7.40;98088.00;;;;4862267;29;20414;-69
2024/02/27 07:29:53;;;;;;;31.77;21.92;;;;;7.50;98089.00;;;;4861801;29;20049;-69
2024/02/27 07:32:19;;;;;;;36.15;23.25;;;;;7.50;98102.00;;;;4861810;29;20052;-69
2024/02/27 07:34:46;;;;;;;33.05;21.48;;;;;7.60;98104.00;;;;4862135;29;20118;-69
2024/02/27 07:37:16;;;;;;;33.53;21.02;;;;;7.60;98112.00;;;;4860645;29;20052;-71
2024/02/27 07:39:45;;;;;;;34.85;22.08;;;;;7.60;98110.00;;;;4861059;29;20128;-71
2024/02/27 07:42:11;;;;;;;35.35;22.38;;;;;7.60;98105.00;;;;4861654;29;20049;-69
2024/02/27 07:44:38;;;;;;;32.55;21.98;;;;;7.80;98105.00;;;;4845234;29;20118;-70
2024/02/27 07:47:05;;;;;;;33.47;22.50;;;;;7.90;98111.00;;;;4860728;29;20057;-70
2024/02/27 07:49:31;;;;;;;37.40;22.33;;;;;8.00;98110.00;;;;4844970;29;20049;-70
2024/02/27 07:51:58;;;;;;;31.45;20.55;;;;;8.10;98113.00;;;;4857552;29;20098;-68
2024/02/27 07:54:26;;;;;;;32.10;21.02;;;;;8.20;98120.00;;;;4842224;29;20058;-69
2024/02/27 07:56:53;;;;;;;27.63;19.33;;;;;8.30;98124.00;;;;4843172;29;20148;-69
2024/02/27 07:59:20;;;;;;;33.28;20.73;;;;;8.50;98124.00;;;;4843373;29;20157;-68
2024/02/27 08:01:47;;;;;;;37.03;23.40;;;;;8.60;98116.00;;;;4828257;29;20054;-69
2024/02/27 08:04:13;;;;;;;30.80;19.90;;;;;8.60;98119.00;;;;4843244;29;20049;-69
2024/02/27 08:06:40;;;;;;;27.65;19.35;;;;;8.50;98126.00;;;;4842690;29;20076;-69
2024/02/27 08:09:09;;;;;;;30.02;20.17;;;;;8.60;98136.00;;;;4842025;29;20046;-69
2024/02/27 08:11:36;;;;;;;30.92;20.23;;;;;8.80;98137.00;;;;4843269;29;20046;-69
2024/02/27 08:14:02;;;;;;;31.27;20.25;;;;;8.80;98133.00;;;;4843069;29;20073;-68
2024/02/27 08:16:31;;;;;;;30.27;18.70;;;;;8.80;98134.00;;;;4842066;29;20133;-68
2024/02/27 08:18:58;;;;;;;28.98;19.20;;;;;8.80;98129.00;;;;4842276;29;20046;-68
2024/02/27 08:21:25;;;;;;;26.27;18.75;;;;;8.80;98123.00;;;;4844346;29;20050;-68
2024/02/27 08:23:52;;;;;;;26.45;18.27;;;;;8.80;98124.00;;;;4861140;29;20049;-68
2024/02/27 08:26:19;;;;;;;30.65;19.83;;;;;8.90;98120.00;;;;4861500;29;20046;-69
2024/02/27 08:28:46;;;;;;;27.98;19.02;;;;;9.10;98129.00;;;;4860478;29;20053;-69
2024/02/27 08:31:12;;;;;;;26.55;18.63;;;;;9.10;98142.00;;;;4859968;29;20048;-69
2024/02/27 08:33:40;;;;;;;30.27;19.77;;;;;9.20;98134.00;;;;4862049;29;20069;-69
2024/02/27 08:36:07;;;;;;;27.52;20.10;;;;;9.30;98128.00;;;;4860075;29;20045;-69
2024/02/27 08:38:34;;;;;;;27.73;19.95;;;;;9.30;98128.00;;;;4861148;29;20097;-70
2024/02/27 08:41:01;;;;;;;25.85;18.70;;;;;9.40;98132.00;;;;4861415;29;20129;-69
2024/02/27 08:43:28;;;;;;;28.55;19.48;;;;;9.40;98135.00;;;;4860932;29;20136;-69
2024/02/27 08:45:57;;;;;;;29.63;19.63;;;;;9.50;98136.00;;;;4861294;29;20049;-69
2024/02/27 08:48:24;;;;;;;28.08;19.90;;;;;9.50;98135.00;;;;4860993;29;20049;-69
2024/02/27 08:50:50;;;;;;;29.98;18.42;;;;;9.50;98140.00;;;;4860148;29;20038;-70
2024/02/27 08:53:17;;;;;;;28.65;18.83;;;;;9.50;98149.00;;;;4845026;29;20172;-67
2024/02/27 08:55:44;;;;;;;25.85;18.63;;;;;9.50;98146.00;;;;4860721;29;20045;-67
2024/02/27 08:58:10;;;;;;;25.10;18.08;;;;;9.50;98142.00;;;;4859604;29;20133;-67
2024/02/27 09:00:37;;;;;;;24.95;17.85;;;;;9.50;98147.00;;;;4859577;29;20144;-66
2024/02/27 09:03:04;;;;;;;26.67;18.83;;;;;9.60;98144.00;;;;4862848;29;20078;-66
2024/02/27 09:05:33;;;;;;;31.58;20.88;;;;;9.60;98152.00;;;;4863401;29;20059;-66
2024/02/27 09:08:00;;;;;;;27.73;18.52;;;;;9.60;98146.00;;;;4848162;29;20063;-66
2024/02/27 09:10:27;;;;;;;26.63;18.00;;;;;9.60;98154.00;;;;4864735;29;20049;-66
2024/02/27 09:12:55;;;;;;;23.77;18.40;;;;;9.60;98155.00;;;;4864306;29;20136;-66
2024/02/27 09:15:22;;;;;;;23.70;17.55;;;;;9.70;98161.00;;;;4864412;29;20037;-66
2024/02/27 09:17:48;;;;;;;25.25;18.15;;;;;10.00;98164.00;;;;4864288;29;20050;-66
2024/02/27 09:20:15;;;;;;;24.73;17.50;;;;;10.20;98157.00;;;;4864421;29;20049;-67
2024/02/27 09:22:42;;;;;;;25.23;17.83;;;;;10.40;98162.00;;;;4864006;29;20133;-67
2024/02/27 09:25:08;;;;;;;25.35;17.75;;;;;10.70;98167.00;;;;4864156;29;20080;-67
2024/02/27 09:27:35;;;;;;;25.25;16.88;;;;;10.80;98170.00;;;;4862724;29;20148;-67
2024/02/27 09:30:02;;;;;;;25.90;16.08;;;;;10.80;98159.00;;;;4864004;29;20491;-67
2024/02/27 09:32:29;;;;;;;25.10;15.07;;;;;10.80;98157.00;;;;4863930;29;20053;-67
2024/02/27 09:34:56;;;;;;;27.50;16.92;;;;;10.70;98162.00;;;;4862834;29;20049;-67
2024/02/27 09:37:22;;;;;;;22.80;16.02;;;;;10.70;98162.00;;;;4864215;29;20049;-67
2024/02/27 09:39:49;;;;;;;24.88;15.93;;;;;10.60;98163.00;;;;4862929;29;20049;-67
2024/02/27 09:42:25;;;;;;;23.50;14.80;;;;;10.60;98167.00;;;;4863642;29;20144;-67
2024/02/27 09:45:05;;;;;;;23.67;15.73;;;;;10.50;98163.00;;;;4863770;29;20101;-67
2024/02/27 09:47:38;;;;;;;21.27;14.93;;;;;10.60;98164.00;;;;4863318;29;20148;-67
2024/02/27 09:50:07;;;;;;;20.75;13.65;;;;;10.80;98160.00;;;;4863849;29;20049;-68
2024/02/27 09:52:35;;;;;;;17.90;13.35;;;;;10.90;98171.00;;;;4864234;29;20459;-67
2024/02/27 09:55:03;;;;;;;23.60;14.93;;;;;11.00;98175.00;;;;4863981;29;20120;-67
2024/02/27 09:57:29;;;;;;;22.08;14.45;;;;;11.30;98159.00;;;;4864295;29;20042;-68
2024/02/27 09:59:56;;;;;;;20.83;14.15;;;;;11.50;98157.00;;;;4864239;29;20041;-68
2024/02/27 10:02:23;;;;;;;21.73;13.45;;;;;11.80;98167.00;;;;4863481;29;20053;-68
2024/02/27 10:04:51;;;;;;;18.80;14.02;;;;;11.90;98163.00;;;;4862656;29;20041;-68
2024/02/27 10:07:18;;;;;;;17.95;13.20;;;;;12.10;98172.00;;;;4863812;29;20380;-67
2024/02/27 10:09:45;;;;;;;19.23;13.70;;;;;12.00;98169.00;;;;4863466;29;20468;-67
2024/02/27 10:12:13;;;;;;;20.65;13.88;;;;;11.80;98177.00;;;;4863363;29;20045;-67
2024/02/27 10:14:40;;;;;;;20.27;13.35;;;;;11.70;98181.00;;;;4862040;29;20053;-67
2024/02/27 10:17:08;;;;;;;18.42;12.80;;;;;11.60;98168.00;;;;4863208;29;20125;-67
2024/02/27 10:19:36;;;;;;;18.27;13.00;;;;;11.50;98169.00;;;;4863538;29;20407;-68
2024/02/27 10:22:04;;;;;;;20.65;14.25;;;;;11.50;98167.00;;;;4862378;29;20056;-69
2024/02/27 10:24:30;;;;;;;19.77;13.60;;;;;11.50;98166.00;;;;4863254;29;20042;-69
2024/02/27 10:27:02;;;;;;;20.25;13.73;;;;;11.40;98175.00;;;;4863154;29;20056;-69
2024/02/27 10:29:31;;;;;;;16.88;13.13;;;;;11.30;98181.00;;;;4863170;29;20515;-69
2024/02/27 10:31:57;;;;;;;19.88;12.90;;;;;11.40;98172.00;;;;4863310;29;20169;-69
2024/02/27 10:34:25;;;;;;;20.27;14.27;;;;;11.30;98181.00;;;;4862995;29;20128;-69
2024/02/27 10:36:59;;;;;;;21.95;13.95;;;;;11.30;98194.00;;;;4862945;29;20057;-69
2024/02/27 10:39:27;;;;;;;26.88;15.43;;;;;11.30;98190.00;;;;4861803;29;20091;-69
2024/02/27 10:41:55;;;;;;;21.75;14.38;;;;;11.50;98189.00;;;;4861638;29;20053;-69
2024/02/27 10:44:22;;;;;;;20.60;14.13;;;;;11.60;98183.00;;;;4846219;29;20110;-70
2024/02/27 10:46:49;;;;;;;22.45;14.07;;;;;11.70;98185.00;;;;4862797;29;20419;-69
2024/02/27 10:49:16;;;;;;;22.15;15.00;;;;;11.70;98187.00;;;;4861793;29;20082;-69
2024/02/27 10:51:44;;;;;;;20.90;14.02;;;;;11.60;98187.00;;;;4863028;29;20473;-70
2024/02/27 10:54:14;;;;;;;19.00;13.60;;;;;11.50;98188.00;;;;4862687;29;20519;-69
2024/02/27 10:56:41;;;;;;;19.63;14.50;;;;;11.60;98182.00;;;;4862605;29;20092;-69
2024/02/27 10:59:09;;;;;;;20.00;13.30;;;;;11.80;98183.00;;;;4862820;29;20499;-69
2024/02/27 11:01:37;;;;;;;21.40;14.40;;;;;11.90;98180.00;;;;4861456;29;20048;-71
2024/02/27 11:04:05;;;;;;;18.90;13.60;;;;;12.00;98185.00;;;;4862375;29;20053;-69
2024/02/27 11:06:35;;;;;;;19.27;12.77;;;;;12.10;98181.00;;;;4862422;29;20053;-70
2024/02/27 11:09:10;;;;;;;18.48;13.18;;;;;12.10;98193.00;;;;4862346;29;20415;-71
2024/02/27 11:11:37;;;;;;;19.10;13.55;;;;;12.00;98197.00;;;;4862876;29;20053;-69
2024/02/27 11:14:08;;;;;;;18.35;13.68;;;;;11.90;98196.00;;;;4862303;29;20053;-69
2024/02/27 11:16:38;;;;;;;21.23;14.30;;;;;11.90;98201.00;;;;4862631;29;20117;-70
2024/02/27 11:19:19;;;;;;;19.58;14.02;;;;;11.80;98205.00;;;;4861225;29;20410;-70
2024/02/27 11:21:47;;;;;;;18.40;12.48;;;;;11.80;98213.00;;;;4861397;29;20050;-69
2024/02/27 11:24:14;;;;;;;17.50;13.00;;;;;11.60;98217.00;;;;4862056;29;20049;-69
2024/02/27 11:26:42;;;;;;;21.27;13.90;;;;;11.60;98216.00;;;;4860712;29;20064;-69
2024/02/27 11:29:09;;;;;;;20.35;13.27;;;;;11.60;98199.00;;;;4860923;29;20105;-69
2024/02/27 11:31:37;;;;;;;16.58;12.75;;;;;11.70;98209.00;;;;4861433;29;20073;-70
2024/02/27 11:34:05;;;;;;;20.08;13.98;;;;;11.70;98205.00;;;;4862077;29;20056;-69
2024/02/27 11:36:33;;;;;;;19.00;14.20;;;;;11.70;98203.00;;;;4861923;29;20073;-69
2024/02/27 11:38:59;;;;;;;20.40;13.60;;;;;11.80;98199.00;;;;4862202;29;20518;-70
2024/02/27 11:41:26;;;;;;;18.25;12.88;;;;;11.90;98212.00;;;;4861715;29;20037;-70
2024/02/27 11:43:55;;;;;;;18.35;12.55;;;;;11.90;98201.00;;;;4845903;29;20092;-70
2024/02/27 11:46:31;;;;;;;20.17;13.13;;;;;12.00;98198.00;;;;4861444;29;20109;-70
2024/02/27 11:48:58;;;;;;;17.45;12.27;;;;;12.20;98200.00;;;;4861077;29;20102;-70
2024/02/27 11:51:29;;;;;;;18.02;13.15;;;;;12.20;98198.00;;;;4862191;29;20041;-69
2024/02/27 11:53:56;;;;;;;18.17;12.32;;;;;12.30;98194.00;;;;4862559;29;20436;-70
2024/02/27 11:56:23;;;;;;;20.35;13.98;;;;;12.30;98198.00;;;;4862519;29;20046;-70
2024/02/27 11:58:52;;;;;;;20.45;12.48;;;;;12.40;98187.00;;;;4862150;29;20050;-69
2024/02/27 12:01:22;;;;;;;14.82;11.35;;;;;12.30;98194.00;;;;4861600;29;20045;-69
2024/02/27 12:03:50;;;;;;;18.95;13.10;;;;;12.30;98197.00;;;;4862001;29;20432;-69
2024/02/27 12:06:17;;;;;;;17.85;12.55;;;;;12.30;98189.00;;;;4861236;29;20053;-70
2024/02/27 12:08:46;;;;;;;20.90;12.68;;;;;12.30;98195.00;;;;4861370;29;20097;-70
2024/02/27 12:11:15;;;;;;;19.23;13.15;;;;;12.10;98183.00;;;;4861523;29;20059;-69
2024/02/27 12:13:46;;;;;;;18.95;13.00;;;;;12.10;98190.00;;;;4860513;29;20528;-69